sensor_id;sensor_type;location;lat;lon;timestamp;P1;durP1;ratioP1;P2;durP2;ratioP2
21539;SDS011;10931;52.164;5.518;2023-07-13T00:01:30;5.55;;;1.10;;
21539;SDS011;10931;52.164;5.518;2023-07-13T00:03:56;3.25;;;0.82;;
21539;SDS011;10931;52.164;5.518;2023-07-13T00:06:22;4.10;;;1.15;;
21539;SDS011;10931;52.164;5.518;2023-07-13T00:08:48;4.72;;;0.93;;
21539;SDS011;10931;52.164;5.518;2023-07-13T00:11:16;4.25;;;0.88;;
21539;SDS011;10931;52.164;5.518;2023-07-13T00:13:45;3.30;;;1.00;;
21539;SDS011;10931;52.164;5.518;2023-07-13T00:16:11;4.65;;;1.08;;
21539;SDS011;10931;52.164;5.518;2023-07-13T00:18:38;2.40;;;0.85;;
21539;SDS011;10931;52.164;5.518;2023-07-13T00:21:04;3.85;;;1.02;;
21539;SDS011;10931;52.164;5.518;2023-07-13T00:23:32;2.58;;;0.80;;
21539;SDS011;10931;52.164;5.518;2023-07-13T00:25:59;2.05;;;0.90;;
21539;SDS011;10931;52.164;5.518;2023-07-13T00:28:26;4.63;;;0.85;;
21539;SDS011;10931;52.164;5.518;2023-07-13T00:30:54;4.18;;;1.13;;
21539;SDS011;10931;52.164;5.518;2023-07-13T00:33:22;2.22;;;0.90;;
21539;SDS011;10931;52.164;5.518;2023-07-13T00:35:48;4.50;;;1.38;;
21539;SDS011;10931;52.164;5.518;2023-07-13T00:38:15;5.28;;;1.13;;
21539;SDS011;10931;52.164;5.518;2023-07-13T00:40:46;3.85;;;1.02;;
21539;SDS011;10931;52.164;5.518;2023-07-13T00:43:25;4.00;;;0.90;;
21539;SDS011;10931;52.164;5.518;2023-07-13T00:48:23;4.75;;;1.30;;
21539;SDS011;10931;52.164;5.518;2023-07-13T00:51:00;4.03;;;1.10;;
21539;SDS011;10931;52.164;5.518;2023-07-13T00:53:31;2.92;;;1.00;;
21539;SDS011;10931;52.164;5.518;2023-07-13T00:55:58;3.03;;;0.98;;
21539;SDS011;10931;52.164;5.518;2023-07-13T00:58:27;3.58;;;0.90;;
21539;SDS011;10931;52.164;5.518;2023-07-13T01:00:56;4.93;;;1.13;;
21539;SDS011;10931;52.164;5.518;2023-07-13T01:03:22;3.92;;;1.40;;
21539;SDS011;10931;52.164;5.518;2023-07-13T01:05:57;7.45;;;1.50;;
21539;SDS011;10931;52.164;5.518;2023-07-13T01:08:25;5.45;;;1.55;;
21539;SDS011;10931;52.164;5.518;2023-07-13T01:10:53;3.65;;;1.17;;
21539;SDS011;10931;52.164;5.518;2023-07-13T01:13:20;2.45;;;1.02;;
21539;SDS011;10931;52.164;5.518;2023-07-13T01:15:46;4.70;;;1.15;;
21539;SDS011;10931;52.164;5.518;2023-07-13T01:18:20;4.85;;;1.33;;
21539;SDS011;10931;52.164;5.518;2023-07-13T01:20:59;3.95;;;1.10;;
21539;SDS011;10931;52.164;5.518;2023-07-13T01:23:28;3.33;;;1.30;;
21539;SDS011;10931;52.164;5.518;2023-07-13T01:25:55;3.25;;;1.00;;
21539;SDS011;10931;52.164;5.518;2023-07-13T01:28:22;3.30;;;1.00;;
21539;SDS011;10931;52.164;5.518;2023-07-13T01:30:52;5.05;;;1.00;;
21539;SDS011;10931;52.164;5.518;2023-07-13T01:33:21;4.30;;;1.20;;
21539;SDS011;10931;52.164;5.518;2023-07-13T01:35:46;4.43;;;1.30;;
21539;SDS011;10931;52.164;5.518;2023-07-13T01:38:16;3.80;;;0.88;;
21539;SDS011;10931;52.164;5.518;2023-07-13T01:40:43;2.10;;;1.10;;
21539;SDS011;10931;52.164;5.518;2023-07-13T01:43:12;3.67;;;0.98;;
21539;SDS011;10931;52.164;5.518;2023-07-13T01:45:38;2.28;;;0.90;;
21539;SDS011;10931;52.164;5.518;2023-07-13T01:48:05;5.07;;;0.90;;
21539;SDS011;10931;52.164;5.518;2023-07-13T01:50:34;4.03;;;1.05;;
21539;SDS011;10931;52.164;5.518;2023-07-13T01:53:01;3.63;;;0.93;;
21539;SDS011;10931;52.164;5.518;2023-07-13T01:55:33;3.72;;;1.00;;
21539;SDS011;10931;52.164;5.518;2023-07-13T01:58:00;6.45;;;1.10;;
21539;SDS011;10931;52.164;5.518;2023-07-13T02:00:26;4.40;;;1.33;;
21539;SDS011;10931;52.164;5.518;2023-07-13T02:02:55;5.78;;;1.27;;
21539;SDS011;10931;52.164;5.518;2023-07-13T02:05:26;2.97;;;1.00;;
21539;SDS011;10931;52.164;5.518;2023-07-13T02:07:54;2.72;;;0.85;;
21539;SDS011;10931;52.164;5.518;2023-07-13T02:10:22;2.42;;;0.73;;
21539;SDS011;10931;52.164;5.518;2023-07-13T02:12:55;3.65;;;0.90;;
21539;SDS011;10931;52.164;5.518;2023-07-13T02:15:20;2.88;;;1.33;;
21539;SDS011;10931;52.164;5.518;2023-07-13T02:17:46;2.25;;;0.90;;
21539;SDS011;10931;52.164;5.518;2023-07-13T02:20:12;2.28;;;0.90;;
21539;SDS011;10931;52.164;5.518;2023-07-13T02:22:40;2.95;;;0.80;;
21539;SDS011;10931;52.164;5.518;2023-07-13T02:25:06;2.78;;;1.20;;
21539;SDS011;10931;52.164;5.518;2023-07-13T02:27:35;5.07;;;1.10;;
21539;SDS011;10931;52.164;5.518;2023-07-13T02:30:00;2.28;;;0.90;;
21539;SDS011;10931;52.164;5.518;2023-07-13T02:32:26;3.22;;;1.13;;
21539;SDS011;10931;52.164;5.518;2023-07-13T02:34:55;1.92;;;0.90;;
21539;SDS011;10931;52.164;5.518;2023-07-13T02:37:20;2.83;;;0.88;;
21539;SDS011;10931;52.164;5.518;2023-07-13T02:39:46;2.95;;;0.90;;
21539;SDS011;10931;52.164;5.518;2023-07-13T02:44:45;5.25;;;1.13;;
21539;SDS011;10931;52.164;5.518;2023-07-13T02:47:11;4.00;;;0.88;;
21539;SDS011;10931;52.164;5.518;2023-07-13T02:49:38;3.42;;;1.10;;
21539;SDS011;10931;52.164;5.518;2023-07-13T02:52:03;2.10;;;0.70;;
21539;SDS011;10931;52.164;5.518;2023-07-13T02:54:34;3.83;;;1.00;;
21539;SDS011;10931;52.164;5.518;2023-07-13T02:57:04;3.13;;;0.80;;
21539;SDS011;10931;52.164;5.518;2023-07-13T02:59:30;2.33;;;0.75;;
21539;SDS011;10931;52.164;5.518;2023-07-13T03:02:01;2.22;;;0.77;;
21539;SDS011;10931;52.164;5.518;2023-07-13T03:04:27;2.95;;;1.02;;
21539;SDS011;10931;52.164;5.518;2023-07-13T03:06:53;2.58;;;1.05;;
21539;SDS011;10931;52.164;5.518;2023-07-13T03:09:23;4.07;;;0.90;;
21539;SDS011;10931;52.164;5.518;2023-07-13T03:11:55;3.63;;;0.88;;
21539;SDS011;10931;52.164;5.518;2023-07-13T03:14:24;2.78;;;1.02;;
21539;SDS011;10931;52.164;5.518;2023-07-13T03:16:52;4.15;;;1.33;;
21539;SDS011;10931;52.164;5.518;2023-07-13T03:19:18;2.85;;;0.85;;
21539;SDS011;10931;52.164;5.518;2023-07-13T03:21:44;2.00;;;0.75;;
21539;SDS011;10931;52.164;5.518;2023-07-13T03:24:17;3.53;;;0.85;;
21539;SDS011;10931;52.164;5.518;2023-07-13T03:26:43;3.15;;;0.90;;
21539;SDS011;10931;52.164;5.518;2023-07-13T05:41:55;3.42;;;1.10;;
21539;SDS011;10931;52.164;5.518;2023-07-13T05:44:23;5.47;;;1.48;;
21539;SDS011;10931;52.164;5.518;2023-07-13T05:46:49;4.72;;;1.30;;
21539;SDS011;10931;52.164;5.518;2023-07-13T05:49:27;5.43;;;1.13;;
21539;SDS011;10931;52.164;5.518;2023-07-13T05:52:13;5.30;;;1.30;;
21539;SDS011;10931;52.164;5.518;2023-07-13T05:54:38;3.30;;;1.40;;
21539;SDS011;10931;52.164;5.518;2023-07-13T05:57:04;5.63;;;1.35;;
21539;SDS011;10931;52.164;5.518;2023-07-13T05:59:30;2.83;;;1.15;;
21539;SDS011;10931;52.164;5.518;2023-07-13T06:01:58;5.20;;;1.30;;
21539;SDS011;10931;52.164;5.518;2023-07-13T06:04:24;8.23;;;1.40;;
21539;SDS011;10931;52.164;5.518;2023-07-13T06:06:53;5.03;;;1.40;;
21539;SDS011;10931;52.164;5.518;2023-07-13T06:09:19;4.30;;;1.25;;
21539;SDS011;10931;52.164;5.518;2023-07-13T06:11:44;3.80;;;1.25;;
21539;SDS011;10931;52.164;5.518;2023-07-13T06:14:10;5.75;;;1.25;;
21539;SDS011;10931;52.164;5.518;2023-07-13T06:16:36;6.35;;;1.45;;
21539;SDS011;10931;52.164;5.518;2023-07-13T06:19:02;4.53;;;1.45;;
21539;SDS011;10931;52.164;5.518;2023-07-13T06:21:27;6.30;;;1.30;;
21539;SDS011;10931;52.164;5.518;2023-07-13T06:23:53;5.90;;;1.50;;
21539;SDS011;10931;52.164;5.518;2023-07-13T06:26:19;6.72;;;1.65;;
21539;SDS011;10931;52.164;5.518;2023-07-13T06:28:46;5.15;;;1.70;;
21539;SDS011;10931;52.164;5.518;2023-07-13T06:31:14;6.18;;;1.55;;
21539;SDS011;10931;52.164;5.518;2023-07-13T06:33:40;4.75;;;1.85;;
21539;SDS011;10931;52.164;5.518;2023-07-13T06:36:09;4.70;;;1.55;;
21539;SDS011;10931;52.164;5.518;2023-07-13T06:38:36;6.05;;;1.70;;
21539;SDS011;10931;52.164;5.518;2023-07-13T06:41:02;5.28;;;1.50;;
21539;SDS011;10931;52.164;5.518;2023-07-13T06:43:28;8.00;;;1.85;;
21539;SDS011;10931;52.164;5.518;2023-07-13T06:45:55;5.28;;;1.58;;
21539;SDS011;10931;52.164;5.518;2023-07-13T06:48:24;4.32;;;1.63;;
21539;SDS011;10931;52.164;5.518;2023-07-13T06:50:52;3.45;;;1.48;;
21539;SDS011;10931;52.164;5.518;2023-07-13T06:53:21;5.93;;;1.88;;
21539;SDS011;10931;52.164;5.518;2023-07-13T06:55:55;8.02;;;2.03;;
21539;SDS011;10931;52.164;5.518;2023-07-13T06:58:20;2.15;;;1.25;;
21539;SDS011;10931;52.164;5.518;2023-07-13T07:00:49;5.32;;;1.90;;
21539;SDS011;10931;52.164;5.518;2023-07-13T07:03:20;6.13;;;1.92;;
21539;SDS011;10931;52.164;5.518;2023-07-13T07:06:03;6.63;;;1.70;;
21539;SDS011;10931;52.164;5.518;2023-07-13T07:08:38;4.60;;;1.95;;
21539;SDS011;10931;52.164;5.518;2023-07-13T07:11:03;5.10;;;1.88;;
21539;SDS011;10931;52.164;5.518;2023-07-13T07:13:29;4.68;;;2.08;;
21539;SDS011;10931;52.164;5.518;2023-07-13T07:15:58;5.70;;;1.75;;
21539;SDS011;10931;52.164;5.518;2023-07-13T07:18:25;4.53;;;1.65;;
21539;SDS011;10931;52.164;5.518;2023-07-13T07:20:53;4.15;;;1.80;;
21539;SDS011;10931;52.164;5.518;2023-07-13T07:23:19;5.40;;;1.98;;
21539;SDS011;10931;52.164;5.518;2023-07-13T07:25:45;4.20;;;1.95;;
21539;SDS011;10931;52.164;5.518;2023-07-13T07:28:12;7.88;;;2.22;;
21539;SDS011;10931;52.164;5.518;2023-07-13T07:30:43;4.93;;;1.60;;
21539;SDS011;10931;52.164;5.518;2023-07-13T07:33:13;3.45;;;1.75;;
21539;SDS011;10931;52.164;5.518;2023-07-13T07:35:39;6.15;;;2.10;;
21539;SDS011;10931;52.164;5.518;2023-07-13T07:38:05;6.72;;;1.92;;
21539;SDS011;10931;52.164;5.518;2023-07-13T07:40:38;6.22;;;2.08;;
21539;SDS011;10931;52.164;5.518;2023-07-13T07:43:06;4.15;;;1.83;;
21539;SDS011;10931;52.164;5.518;2023-07-13T07:45:32;5.07;;;1.50;;
21539;SDS011;10931;52.164;5.518;2023-07-13T07:47:58;5.45;;;2.17;;
21539;SDS011;10931;52.164;5.518;2023-07-13T07:50:29;4.07;;;1.73;;
21539;SDS011;10931;52.164;5.518;2023-07-13T07:52:58;7.63;;;2.08;;
21539;SDS011;10931;52.164;5.518;2023-07-13T07:55:24;4.88;;;1.75;;
21539;SDS011;10931;52.164;5.518;2023-07-13T07:57:53;4.53;;;1.58;;
21539;SDS011;10931;52.164;5.518;2023-07-13T08:00:29;4.18;;;1.80;;
21539;SDS011;10931;52.164;5.518;2023-07-13T08:03:02;5.70;;;1.90;;
21539;SDS011;10931;52.164;5.518;2023-07-13T08:05:28;6.25;;;2.22;;
21539;SDS011;10931;52.164;5.518;2023-07-13T08:07:57;4.20;;;1.50;;
21539;SDS011;10931;52.164;5.518;2023-07-13T08:10:25;3.88;;;1.70;;
21539;SDS011;10931;52.164;5.518;2023-07-13T08:12:51;6.68;;;1.92;;
21539;SDS011;10931;52.164;5.518;2023-07-13T08:15:17;5.45;;;1.75;;
21539;SDS011;10931;52.164;5.518;2023-07-13T08:17:45;4.63;;;1.95;;
21539;SDS011;10931;52.164;5.518;2023-07-13T08:20:13;4.80;;;1.92;;
21539;SDS011;10931;52.164;5.518;2023-07-13T08:22:59;5.57;;;2.20;;
21539;SDS011;10931;52.164;5.518;2023-07-13T08:25:50;5.57;;;1.83;;
21539;SDS011;10931;52.164;5.518;2023-07-13T08:28:22;4.97;;;2.00;;
21539;SDS011;10931;52.164;5.518;2023-07-13T08:31:08;4.50;;;2.15;;
21539;SDS011;10931;52.164;5.518;2023-07-13T08:33:35;7.13;;;1.80;;
21539;SDS011;10931;52.164;5.518;2023-07-13T08:36:02;6.53;;;1.90;;
21539;SDS011;10931;52.164;5.518;2023-07-13T08:38:30;6.32;;;2.47;;
21539;SDS011;10931;52.164;5.518;2023-07-13T08:40:56;6.45;;;2.00;;
21539;SDS011;10931;52.164;5.518;2023-07-13T08:43:26;5.50;;;1.98;;
21539;SDS011;10931;52.164;5.518;2023-07-13T08:46:11;7.05;;;1.83;;
21539;SDS011;10931;52.164;5.518;2023-07-13T08:48:49;5.63;;;1.90;;
21539;SDS011;10931;52.164;5.518;2023-07-13T08:51:30;6.13;;;2.45;;
21539;SDS011;10931;52.164;5.518;2023-07-13T08:54:05;6.38;;;2.38;;
21539;SDS011;10931;52.164;5.518;2023-07-13T08:56:56;6.47;;;1.60;;
21539;SDS011;10931;52.164;5.518;2023-07-13T08:59:27;3.13;;;1.88;;
21539;SDS011;10931;52.164;5.518;2023-07-13T09:04:42;4.75;;;2.13;;
21539;SDS011;10931;52.164;5.518;2023-07-13T09:12:45;5.45;;;1.90;;
21539;SDS011;10931;52.164;5.518;2023-07-13T09:15:42;3.45;;;1.63;;
21539;SDS011;10931;52.164;5.518;2023-07-13T09:18:11;4.95;;;2.28;;
21539;SDS011;10931;52.164;5.518;2023-07-13T09:20:46;4.43;;;2.30;;
21539;SDS011;10931;52.164;5.518;2023-07-13T09:23:20;3.25;;;1.80;;
21539;SDS011;10931;52.164;5.518;2023-07-13T09:25:48;6.43;;;2.20;;
21539;SDS011;10931;52.164;5.518;2023-07-13T09:28:28;4.75;;;1.98;;
21539;SDS011;10931;52.164;5.518;2023-07-13T09:31:04;4.32;;;1.67;;
21539;SDS011;10931;52.164;5.518;2023-07-13T09:33:43;6.90;;;2.17;;
21539;SDS011;10931;52.164;5.518;2023-07-13T09:36:30;3.95;;;1.80;;
21539;SDS011;10931;52.164;5.518;2023-07-13T09:39:05;3.47;;;1.70;;
21539;SDS011;10931;52.164;5.518;2023-07-13T09:47:23;4.32;;;1.88;;
21539;SDS011;10931;52.164;5.518;2023-07-13T09:50:04;5.70;;;1.70;;
21539;SDS011;10931;52.164;5.518;2023-07-13T09:52:42;3.88;;;1.70;;
21539;SDS011;10931;52.164;5.518;2023-07-13T09:55:57;3.58;;;1.50;;
21539;SDS011;10931;52.164;5.518;2023-07-13T09:58:22;3.33;;;1.73;;
21539;SDS011;10931;52.164;5.518;2023-07-13T10:00:55;5.13;;;1.88;;
21539;SDS011;10931;52.164;5.518;2023-07-13T10:03:27;4.05;;;1.88;;
21539;SDS011;10931;52.164;5.518;2023-07-13T10:05:57;4.03;;;1.50;;
21539;SDS011;10931;52.164;5.518;2023-07-13T10:08:32;4.10;;;1.73;;
21539;SDS011;10931;52.164;5.518;2023-07-13T10:11:08;4.97;;;1.73;;
21539;SDS011;10931;52.164;5.518;2023-07-13T10:13:37;3.47;;;1.70;;
21539;SDS011;10931;52.164;5.518;2023-07-13T10:16:25;3.60;;;1.80;;
21539;SDS011;10931;52.164;5.518;2023-07-13T10:22:00;4.20;;;2.15;;
21539;SDS011;10931;52.164;5.518;2023-07-13T10:24:35;2.67;;;1.40;;
21539;SDS011;10931;52.164;5.518;2023-07-13T10:29:46;5.30;;;1.55;;
21539;SDS011;10931;52.164;5.518;2023-07-13T10:32:38;5.50;;;2.08;;
21539;SDS011;10931;52.164;5.518;2023-07-13T10:35:04;4.45;;;1.63;;
21539;SDS011;10931;52.164;5.518;2023-07-13T10:40:27;6.47;;;1.98;;
21539;SDS011;10931;52.164;5.518;2023-07-13T10:42:57;3.80;;;1.63;;
21539;SDS011;10931;52.164;5.518;2023-07-13T10:45:33;5.03;;;1.52;;
21539;SDS011;10931;52.164;5.518;2023-07-13T10:48:01;3.75;;;1.77;;
21539;SDS011;10931;52.164;5.518;2023-07-13T10:50:28;3.95;;;1.42;;
21539;SDS011;10931;52.164;5.518;2023-07-13T10:53:02;3.10;;;1.25;;
21539;SDS011;10931;52.164;5.518;2023-07-13T10:58:40;5.10;;;1.50;;
21539;SDS011;10931;52.164;5.518;2023-07-13T11:01:14;2.83;;;1.55;;
21539;SDS011;10931;52.164;5.518;2023-07-13T11:06:29;3.20;;;1.35;;
21539;SDS011;10931;52.164;5.518;2023-07-13T11:11:58;4.55;;;1.90;;
21539;SDS011;10931;52.164;5.518;2023-07-13T11:14:36;2.33;;;1.20;;
21539;SDS011;10931;52.164;5.518;2023-07-13T11:22:48;3.35;;;1.60;;
21539;SDS011;10931;52.164;5.518;2023-07-13T11:25:32;2.45;;;1.40;;
21539;SDS011;10931;52.164;5.518;2023-07-13T11:28:18;2.50;;;1.70;;
21539;SDS011;10931;52.164;5.518;2023-07-13T11:36:54;3.30;;;1.45;;
21539;SDS011;10931;52.164;5.518;2023-07-13T11:39:44;3.25;;;1.52;;
21539;SDS011;10931;52.164;5.518;2023-07-13T11:43:04;3.08;;;1.52;;
21539;SDS011;10931;52.164;5.518;2023-07-13T11:45:32;1.48;;;1.25;;
21539;SDS011;10931;52.164;5.518;2023-07-13T11:47:59;5.32;;;1.52;;
21539;SDS011;10931;52.164;5.518;2023-07-13T11:50:26;2.97;;;1.88;;
21539;SDS011;10931;52.164;5.518;2023-07-13T11:52:52;6.75;;;1.70;;
21539;SDS011;10931;52.164;5.518;2023-07-13T11:55:21;3.90;;;1.80;;
21539;SDS011;10931;52.164;5.518;2023-07-13T11:58:00;3.03;;;1.48;;
21539;SDS011;10931;52.164;5.518;2023-07-13T12:04:42;4.13;;;1.40;;
21539;SDS011;10931;52.164;5.518;2023-07-13T15:09:53;5.05;;;1.77;;
21539;SDS011;10931;52.164;5.518;2023-07-13T16:10:35;4.38;;;1.73;;
21539;SDS011;10931;52.164;5.518;2023-07-13T16:13:15;3.67;;;1.40;;
21539;SDS011;10931;52.164;5.518;2023-07-13T16:15:44;3.38;;;1.35;;
21539;SDS011;10931;52.164;5.518;2023-07-13T16:18:17;4.55;;;1.30;;
21539;SDS011;10931;52.164;5.518;2023-07-13T16:20:52;2.28;;;1.15;;
21539;SDS011;10931;52.164;5.518;2023-07-13T16:23:21;2.83;;;1.13;;
21539;SDS011;10931;52.164;5.518;2023-07-13T16:25:51;3.63;;;1.35;;
21539;SDS011;10931;52.164;5.518;2023-07-13T16:28:25;2.35;;;1.10;;
21539;SDS011;10931;52.164;5.518;2023-07-13T16:30:52;3.17;;;1.27;;
21539;SDS011;10931;52.164;5.518;2023-07-13T16:36:15;3.65;;;1.48;;
21539;SDS011;10931;52.164;5.518;2023-07-13T16:38:41;1.88;;;1.30;;
21539;SDS011;10931;52.164;5.518;2023-07-13T16:41:07;13.98;;;1.38;;
21539;SDS011;10931;52.164;5.518;2023-07-13T16:43:34;3.15;;;1.27;;
21539;SDS011;10931;52.164;5.518;2023-07-13T16:46:00;3.08;;;1.20;;
21539;SDS011;10931;52.164;5.518;2023-07-13T16:48:28;2.88;;;1.30;;
21539;SDS011;10931;52.164;5.518;2023-07-13T16:53:25;6.85;;;1.55;;
21539;SDS011;10931;52.164;5.518;2023-07-13T16:56:03;3.85;;;1.30;;
21539;SDS011;10931;52.164;5.518;2023-07-13T16:58:32;6.78;;;1.40;;
21539;SDS011;10931;52.164;5.518;2023-07-13T17:04:01;3.95;;;1.35;;
21539;SDS011;10931;52.164;5.518;2023-07-13T17:06:29;4.72;;;1.40;;
21539;SDS011;10931;52.164;5.518;2023-07-13T17:09:24;4.25;;;1.23;;
21539;SDS011;10931;52.164;5.518;2023-07-13T17:11:50;2.90;;;1.20;;
21539;SDS011;10931;52.164;5.518;2023-07-13T17:14:27;2.45;;;1.30;;
21539;SDS011;10931;52.164;5.518;2023-07-13T17:17:08;3.95;;;1.70;;
21539;SDS011;10931;52.164;5.518;2023-07-13T17:19:42;4.30;;;1.20;;
21539;SDS011;10931;52.164;5.518;2023-07-13T17:22:15;4.03;;;1.20;;
21539;SDS011;10931;52.164;5.518;2023-07-13T17:24:44;2.40;;;1.27;;
21539;SDS011;10931;52.164;5.518;2023-07-13T17:27:17;2.80;;;1.20;;
21539;SDS011;10931;52.164;5.518;2023-07-13T17:29:46;2.45;;;0.90;;
21539;SDS011;10931;52.164;5.518;2023-07-13T17:32:37;2.53;;;1.10;;
21539;SDS011;10931;52.164;5.518;2023-07-13T17:37:43;3.35;;;1.08;;
21539;SDS011;10931;52.164;5.518;2023-07-13T17:40:31;3.55;;;1.30;;
21539;SDS011;10931;52.164;5.518;2023-07-13T17:45:30;1.85;;;1.00;;
21539;SDS011;10931;52.164;5.518;2023-07-13T17:48:01;1.95;;;1.20;;
21539;SDS011;10931;52.164;5.518;2023-07-13T17:50:41;1.92;;;1.10;;
21539;SDS011;10931;52.164;5.518;2023-07-13T17:53:20;6.15;;;1.48;;
21539;SDS011;10931;52.164;5.518;2023-07-13T17:55:46;3.05;;;1.02;;
21539;SDS011;10931;52.164;5.518;2023-07-13T17:58:15;3.20;;;1.10;;
21539;SDS011;10931;52.164;5.518;2023-07-13T18:00:43;2.45;;;1.10;;
21539;SDS011;10931;52.164;5.518;2023-07-13T18:03:15;4.70;;;1.10;;
21539;SDS011;10931;52.164;5.518;2023-07-13T18:05:48;2.15;;;1.00;;
21539;SDS011;10931;52.164;5.518;2023-07-13T18:08:22;1.98;;;1.00;;
21539;SDS011;10931;52.164;5.518;2023-07-13T18:10:50;1.40;;;1.00;;
21539;SDS011;10931;52.164;5.518;2023-07-13T18:13:21;2.38;;;1.10;;
21539;SDS011;10931;52.164;5.518;2023-07-13T18:16:03;1.70;;;1.15;;
21539;SDS011;10931;52.164;5.518;2023-07-13T18:18:32;2.53;;;1.27;;
21539;SDS011;10931;52.164;5.518;2023-07-13T18:21:04;2.05;;;1.10;;
21539;SDS011;10931;52.164;5.518;2023-07-13T18:23:38;1.73;;;1.10;;
21539;SDS011;10931;52.164;5.518;2023-07-13T18:26:12;2.88;;;1.00;;
21539;SDS011;10931;52.164;5.518;2023-07-13T18:28:43;3.38;;;1.00;;
21539;SDS011;10931;52.164;5.518;2023-07-13T18:31:17;2.80;;;1.10;;
21539;SDS011;10931;52.164;5.518;2023-07-13T18:33:53;2.47;;;1.00;;
21539;SDS011;10931;52.164;5.518;2023-07-13T18:36:23;1.75;;;1.13;;
21539;SDS011;10931;52.164;5.518;2023-07-13T18:38:52;1.83;;;1.10;;
21539;SDS011;10931;52.164;5.518;2023-07-13T18:41:24;1.90;;;1.10;;
21539;SDS011;10931;52.164;5.518;2023-07-13T18:43:50;1.27;;;0.95;;
21539;SDS011;10931;52.164;5.518;2023-07-13T18:46:20;1.75;;;1.08;;
21539;SDS011;10931;52.164;5.518;2023-07-13T18:48:57;1.88;;;1.15;;
21539;SDS011;10931;52.164;5.518;2023-07-13T18:51:26;2.05;;;1.10;;
21539;SDS011;10931;52.164;5.518;2023-07-13T18:53:59;1.92;;;0.80;;
21539;SDS011;10931;52.164;5.518;2023-07-13T18:56:25;1.50;;;0.90;;
21539;SDS011;10931;52.164;5.518;2023-07-13T19:01:37;1.83;;;1.05;;
21539;SDS011;10931;52.164;5.518;2023-07-13T19:04:32;1.52;;;0.85;;
21539;SDS011;10931;52.164;5.518;2023-07-13T19:07:10;1.25;;;1.00;;
21539;SDS011;10931;52.164;5.518;2023-07-13T19:09:37;2.72;;;1.08;;
21539;SDS011;10931;52.164;5.518;2023-07-13T19:15:08;3.47;;;1.20;;
21539;SDS011;10931;52.164;5.518;2023-07-13T19:17:53;2.95;;;1.30;;
21539;SDS011;10931;52.164;5.518;2023-07-13T19:20:20;2.15;;;1.00;;
21539;SDS011;10931;52.164;5.518;2023-07-13T19:23:02;2.10;;;1.20;;
21539;SDS011;10931;52.164;5.518;2023-07-13T19:25:38;1.63;;;1.08;;
21539;SDS011;10931;52.164;5.518;2023-07-13T19:34:39;1.63;;;1.00;;
21539;SDS011;10931;52.164;5.518;2023-07-13T19:37:20;1.58;;;1.02;;
21539;SDS011;10931;52.164;5.518;2023-07-13T19:40:01;1.63;;;1.00;;
21539;SDS011;10931;52.164;5.518;2023-07-13T19:45:23;1.80;;;1.05;;
21539;SDS011;10931;52.164;5.518;2023-07-13T19:47:55;1.70;;;0.90;;
21539;SDS011;10931;52.164;5.518;2023-07-13T19:50:44;1.42;;;0.90;;
21539;SDS011;10931;52.164;5.518;2023-07-13T19:53:35;1.55;;;0.90;;
21539;SDS011;10931;52.164;5.518;2023-07-13T20:03:49;1.67;;;1.20;;
21539;SDS011;10931;52.164;5.518;2023-07-13T20:06:28;2.67;;;1.45;;
21539;SDS011;10931;52.164;5.518;2023-07-13T20:12:13;1.50;;;1.20;;
21539;SDS011;10931;52.164;5.518;2023-07-13T20:15:03;2.00;;;0.93;;
21539;SDS011;10931;52.164;5.518;2023-07-13T20:17:37;3.08;;;1.27;;
21539;SDS011;10931;52.164;5.518;2023-07-13T20:23:10;1.92;;;1.10;;
21539;SDS011;10931;52.164;5.518;2023-07-13T20:26:04;2.95;;;1.30;;
21539;SDS011;10931;52.164;5.518;2023-07-13T20:31:29;3.75;;;1.20;;
21539;SDS011;10931;52.164;5.518;2023-07-13T20:33:59;2.55;;;1.05;;
21539;SDS011;10931;52.164;5.518;2023-07-13T20:36:28;2.70;;;1.15;;
21539;SDS011;10931;52.164;5.518;2023-07-13T20:38:57;2.90;;;1.58;;
21539;SDS011;10931;52.164;5.518;2023-07-13T20:41:34;1.75;;;1.00;;
21539;SDS011;10931;52.164;5.518;2023-07-13T20:44:20;3.88;;;1.20;;
21539;SDS011;10931;52.164;5.518;2023-07-13T20:57:11;1.80;;;1.00;;
21539;SDS011;10931;52.164;5.518;2023-07-13T20:59:38;3.50;;;1.15;;
21539;SDS011;10931;52.164;5.518;2023-07-13T21:05:20;1.67;;;1.10;;
21539;SDS011;10931;52.164;5.518;2023-07-13T21:07:48;3.15;;;1.17;;
21539;SDS011;10931;52.164;5.518;2023-07-13T21:10:23;2.78;;;1.05;;
21539;SDS011;10931;52.164;5.518;2023-07-13T21:12:51;2.88;;;1.10;;
21539;SDS011;10931;52.164;5.518;2023-07-13T21:15:26;1.75;;;1.17;;
21539;SDS011;10931;52.164;5.518;2023-07-13T21:17:57;1.67;;;1.10;;
21539;SDS011;10931;52.164;5.518;2023-07-13T21:20:29;2.92;;;1.50;;
21539;SDS011;10931;52.164;5.518;2023-07-13T21:23:00;2.70;;;1.25;;
21539;SDS011;10931;52.164;5.518;2023-07-13T21:25:30;3.05;;;1.17;;
21539;SDS011;10931;52.164;5.518;2023-07-13T21:27:57;2.88;;;1.35;;
21539;SDS011;10931;52.164;5.518;2023-07-13T21:30:35;2.80;;;1.30;;
21539;SDS011;10931;52.164;5.518;2023-07-13T21:33:15;3.88;;;1.15;;
21539;SDS011;10931;52.164;5.518;2023-07-13T21:35:44;3.88;;;1.20;;
21539;SDS011;10931;52.164;5.518;2023-07-13T21:38:19;2.55;;;1.40;;
21539;SDS011;10931;52.164;5.518;2023-07-13T21:40:48;1.63;;;1.00;;
21539;SDS011;10931;52.164;5.518;2023-07-13T21:43:19;2.63;;;1.05;;
21539;SDS011;10931;52.164;5.518;2023-07-13T21:45:55;2.38;;;1.45;;
21539;SDS011;10931;52.164;5.518;2023-07-13T21:48:33;3.15;;;1.40;;
21539;SDS011;10931;52.164;5.518;2023-07-13T21:51:18;3.50;;;1.23;;
21539;SDS011;10931;52.164;5.518;2023-07-13T22:01:43;2.05;;;1.10;;
21539;SDS011;10931;52.164;5.518;2023-07-13T22:04:09;2.15;;;1.17;;
21539;SDS011;10931;52.164;5.518;2023-07-13T22:06:40;3.63;;;1.95;;
21539;SDS011;10931;52.164;5.518;2023-07-13T22:09:16;2.58;;;1.30;;
21539;SDS011;10931;52.164;5.518;2023-07-13T22:11:44;1.73;;;1.05;;
21539;SDS011;10931;52.164;5.518;2023-07-13T22:14:13;1.88;;;1.35;;
21539;SDS011;10931;52.164;5.518;2023-07-13T22:16:42;3.53;;;1.08;;
21539;SDS011;10931;52.164;5.518;2023-07-13T22:19:12;4.80;;;1.30;;
21539;SDS011;10931;52.164;5.518;2023-07-13T22:21:45;2.08;;;1.20;;
21539;SDS011;10931;52.164;5.518;2023-07-13T22:24:27;3.45;;;1.17;;
21539;SDS011;10931;52.164;5.518;2023-07-13T22:26:57;3.20;;;1.25;;
21539;SDS011;10931;52.164;5.518;2023-07-13T22:29:24;3.22;;;1.38;;
21539;SDS011;10931;52.164;5.518;2023-07-13T22:31:56;2.95;;;1.25;;
21539;SDS011;10931;52.164;5.518;2023-07-13T22:34:24;2.22;;;1.10;;
21539;SDS011;10931;52.164;5.518;2023-07-13T22:36:50;4.05;;;2.05;;
21539;SDS011;10931;52.164;5.518;2023-07-13T22:39:24;1.80;;;1.00;;
21539;SDS011;10931;52.164;5.518;2023-07-13T22:41:56;2.90;;;1.20;;
21539;SDS011;10931;52.164;5.518;2023-07-13T22:44:24;3.17;;;1.45;;
21539;SDS011;10931;52.164;5.518;2023-07-13T22:46:51;5.15;;;1.10;;
21539;SDS011;10931;52.164;5.518;2023-07-13T22:51:58;2.90;;;1.05;;
21539;SDS011;10931;52.164;5.518;2023-07-13T22:54:34;1.80;;;1.10;;
21539;SDS011;10931;52.164;5.518;2023-07-13T22:57:00;4.88;;;1.23;;
21539;SDS011;10931;52.164;5.518;2023-07-13T23:02:26;3.33;;;1.65;;
21539;SDS011;10931;52.164;5.518;2023-07-13T23:05:04;2.88;;;1.33;;
21539;SDS011;10931;52.164;5.518;2023-07-13T23:08:17;2.72;;;1.30;;
21539;SDS011;10931;52.164;5.518;2023-07-13T23:10:57;2.08;;;1.13;;
21539;SDS011;10931;52.164;5.518;2023-07-13T23:13:26;1.63;;;1.25;;
21539;SDS011;10931;52.164;5.518;2023-07-13T23:15:56;2.38;;;1.23;;
21539;SDS011;10931;52.164;5.518;2023-07-13T23:18:24;2.38;;;1.23;;
21539;SDS011;10931;52.164;5.518;2023-07-13T23:20:50;2.88;;;1.30;;
21539;SDS011;10931;52.164;5.518;2023-07-13T23:23:26;3.00;;;1.60;;
21539;SDS011;10931;52.164;5.518;2023-07-13T23:25:52;4.43;;;1.50;;
21539;SDS011;10931;52.164;5.518;2023-07-13T23:28:18;2.50;;;1.42;;
21539;SDS011;10931;52.164;5.518;2023-07-13T23:30:47;3.40;;;1.77;;
21539;SDS011;10931;52.164;5.518;2023-07-13T23:33:25;3.58;;;1.63;;